createdAt,value
2023-04-28T00:00:01.382Z,9.5
2023-04-28T00:01:01.997Z,9.5
2023-04-28T00:02:01.601Z,9.5
2023-04-28T00:03:01.501Z,9.5
2023-04-28T00:04:02.159Z,9.5
2023-04-28T00:05:01.239Z,9.5
2023-04-28T00:06:02.118Z,9.4
2023-04-28T00:07:01.757Z,9.4
2023-04-28T00:08:01.216Z,9.4
2023-04-28T00:09:01.778Z,9.5
2023-04-28T00:10:01.403Z,9.5
2023-04-28T00:11:01.977Z,9.4
2023-04-28T00:12:01.577Z,9.4
2023-04-28T00:13:01.232Z,9.4
2023-04-28T00:14:01.755Z,9.4
2023-04-28T00:15:01.366Z,9.4
2023-04-28T00:16:01.957Z,9.4
2023-04-28T00:17:01.615Z,9.3
2023-04-28T00:18:01.216Z,9.3
2023-04-28T00:19:01.753Z,9.3
2023-04-28T00:20:01.365Z,9.3
2023-04-28T00:21:01.914Z,9.3
2023-04-28T00:22:01.530Z,9.3
2023-04-28T00:23:01.109Z,9.3
2023-04-28T00:24:01.684Z,9.3
2023-04-28T00:25:01.376Z,9.3
2023-04-28T00:26:01.860Z,9.3
2023-04-28T00:27:01.482Z,9.3
2023-04-28T00:28:01.058Z,9.4
2023-04-28T00:29:01.649Z,9.4
2023-04-28T00:30:01.253Z,9.4
2023-04-28T00:31:01.860Z,9.3
2023-04-28T00:32:01.535Z,9.3
2023-04-28T00:33:01.118Z,9.3
2023-04-28T00:34:01.618Z,9.3
2023-04-28T00:35:01.239Z,9.3
2023-04-28T00:36:01.936Z,9.3
2023-04-28T00:37:01.452Z,9.3
2023-04-28T00:38:01.082Z,9.3
2023-04-28T00:39:01.614Z,9.3
2023-04-28T00:40:01.203Z,9.3
2023-04-28T00:41:01.818Z,9.3
2023-04-28T00:42:01.424Z,9.3
2023-04-28T00:43:02.018Z,9.3
2023-04-28T00:44:01.612Z,9.3
2023-04-28T00:45:01.208Z,9.3
2023-04-28T00:46:01.821Z,9.3
2023-04-28T00:47:01.451Z,9.2
2023-04-28T00:48:01.068Z,9.1
2023-04-28T00:49:01.600Z,9.1
2023-04-28T00:50:01.203Z,9.1
2023-04-28T00:51:01.757Z,9.2
2023-04-28T00:52:01.346Z,9.2
2023-04-28T00:53:01.945Z,9.2
2023-04-28T00:54:01.726Z,9.3
2023-04-28T00:55:01.164Z,9.2
2023-04-28T00:56:01.714Z,9.2
2023-04-28T00:57:01.307Z,9.2
2023-04-28T00:58:01.887Z,9.1
2023-04-28T00:59:01.499Z,9.2
2023-04-28T01:00:01.112Z,9.1
2023-04-28T01:01:01.685Z,9.1
2023-04-28T01:02:01.351Z,9.1
2023-04-28T01:03:02.133Z,9.2
2023-04-28T01:04:01.798Z,9.1
2023-04-28T01:05:01.110Z,9.1
2023-04-28T01:06:01.726Z,8.9
2023-04-28T01:07:01.318Z,8.8
2023-04-28T01:08:01.905Z,8.8
2023-04-28T01:09:01.503Z,8.8
2023-04-28T01:10:01.112Z,8.8
2023-04-28T01:11:01.674Z,8.9
2023-04-28T01:12:01.264Z,8.8
2023-04-28T01:13:01.879Z,8.9
2023-04-28T01:14:01.499Z,8.9
2023-04-28T01:15:01.055Z,8.9
2023-04-28T01:16:01.643Z,8.9
2023-04-28T01:17:01.305Z,8.9
2023-04-28T01:18:01.910Z,9
2023-04-28T01:19:01.508Z,8.8
2023-04-28T01:20:01.061Z,8.7
2023-04-28T01:21:01.644Z,8.8
2023-04-28T01:22:01.247Z,8.9
2023-04-28T01:23:01.816Z,8.9
2023-04-28T01:24:01.450Z,9
2023-04-28T01:25:01.999Z,9
2023-04-28T01:26:01.717Z,8.9
2023-04-28T01:27:01.237Z,8.8
2023-04-28T01:28:01.847Z,8.7
2023-04-28T01:29:01.479Z,8.7
2023-04-28T01:30:01.047Z,8.8
2023-04-28T01:31:01.621Z,8.8
2023-04-28T01:32:01.262Z,8.7
2023-04-28T01:33:01.876Z,8.7
2023-04-28T01:34:01.475Z,8.6
2023-04-28T01:35:01.059Z,8.6
2023-04-28T01:36:01.627Z,8.6
2023-04-28T01:37:01.233Z,8.5
2023-04-28T01:38:01.815Z,8.6
2023-04-28T01:39:01.494Z,8.6
2023-04-28T01:40:01.995Z,8.5
2023-04-28T01:41:01.595Z,8.5
2023-04-28T01:42:01.217Z,8.6
2023-04-28T01:43:01.776Z,8.5
2023-04-28T01:44:01.390Z,8.5
2023-04-28T01:45:01.971Z,8.5
2023-04-28T01:46:01.604Z,8.5
2023-04-28T01:47:01.198Z,8.5
2023-04-28T01:48:01.797Z,8.5
2023-04-28T01:49:01.419Z,8.4
2023-04-28T01:50:02.039Z,8.4
2023-04-28T01:51:01.652Z,8.4
2023-04-28T01:52:01.258Z,8.4
2023-04-28T01:53:01.817Z,8.4
2023-04-28T01:54:01.439Z,8.4
2023-04-28T01:55:02.011Z,8.3
2023-04-28T01:56:01.616Z,8.4
2023-04-28T01:57:01.236Z,8.4
2023-04-28T01:58:01.817Z,8.4
2023-04-28T01:59:01.468Z,8.3
2023-04-28T02:00:02.030Z,8.3
2023-04-28T02:01:01.633Z,8.3
2023-04-28T02:02:01.274Z,8.4
2023-04-28T02:03:01.887Z,8.4
2023-04-28T02:04:01.817Z,8.4
2023-04-28T02:05:01.114Z,8.3
2023-04-28T02:06:01.640Z,8.2
2023-04-28T02:07:01.239Z,8.1
2023-04-28T02:08:01.826Z,8.1
2023-04-28T02:09:01.423Z,8.1
2023-04-28T02:10:02.020Z,8.1
2023-04-28T02:11:01.611Z,8.1
2023-04-28T02:12:01.210Z,8.1
2023-04-28T02:13:01.794Z,8.3
2023-04-28T02:14:01.421Z,8.4
2023-04-28T02:15:02.000Z,8.4
2023-04-28T02:16:01.668Z,8.5
2023-04-28T02:17:01.251Z,8.6
2023-04-28T02:18:01.834Z,8.6
2023-04-28T02:19:01.471Z,8.5
2023-04-28T02:20:01.044Z,8.5
2023-04-28T02:21:01.629Z,8.5
2023-04-28T02:22:01.252Z,8.5
2023-04-28T02:23:01.810Z,8.4
2023-04-28T02:24:01.418Z,8.4
2023-04-28T02:25:01.997Z,8.4
2023-04-28T02:26:01.704Z,8.4
2023-04-28T02:27:01.230Z,8.4
2023-04-28T02:28:01.807Z,8.4
2023-04-28T02:29:01.396Z,8.4
2023-04-28T02:30:02.023Z,8.2
2023-04-28T02:31:01.638Z,8.2
2023-04-28T02:32:01.266Z,8.1
2023-04-28T02:33:01.834Z,8.1
2023-04-28T02:34:01.473Z,8
2023-04-28T02:35:01.038Z,8
2023-04-28T02:36:01.624Z,8
2023-04-28T02:37:01.230Z,8.1
2023-04-28T02:38:01.788Z,8.1
2023-04-28T02:39:01.384Z,8.2
2023-04-28T02:40:01.962Z,8.2
2023-04-28T02:41:01.555Z,8.2
2023-04-28T02:42:01.168Z,8.2
2023-04-28T02:43:01.731Z,8.2
2023-04-28T02:44:01.326Z,8.2
2023-04-28T02:45:01.928Z,8.1
2023-04-28T02:46:01.577Z,8.1
2023-04-28T02:47:01.234Z,8.1
2023-04-28T02:48:01.755Z,8.2
2023-04-28T02:49:01.354Z,8.2
2023-04-28T02:50:01.938Z,8.1
2023-04-28T02:51:01.565Z,8.1
2023-04-28T02:52:01.139Z,8.1
2023-04-28T02:53:01.739Z,8.1
2023-04-28T02:54:01.337Z,8.1
2023-04-28T02:55:01.932Z,8.2
2023-04-28T02:56:01.522Z,8.2
2023-04-28T02:57:01.104Z,8.1
2023-04-28T02:58:01.702Z,8.1
2023-04-28T02:59:01.304Z,8.1
2023-04-28T03:00:01.899Z,8
2023-04-28T03:01:01.508Z,8
2023-04-28T03:02:01.143Z,8
2023-04-28T03:03:01.737Z,8
2023-04-28T03:04:01.560Z,8
2023-04-28T03:05:01.917Z,8
2023-04-28T03:06:01.520Z,7.9
2023-04-28T03:07:01.119Z,8
2023-04-28T03:08:01.683Z,7.9
2023-04-28T03:09:01.302Z,8
2023-04-28T03:10:01.866Z,8
2023-04-28T03:11:01.503Z,7.9
2023-04-28T03:12:01.070Z,7.9
2023-04-28T03:13:01.686Z,7.9
2023-04-28T03:14:01.274Z,7.9
2023-04-28T03:15:01.871Z,8
2023-04-28T03:16:01.513Z,8
2023-04-28T03:17:01.053Z,8.1
2023-04-28T03:18:01.711Z,8.1
2023-04-28T03:19:01.333Z,8.1
2023-04-28T03:20:01.922Z,8
2023-04-28T03:21:01.542Z,8
2023-04-28T03:22:01.129Z,7.9
2023-04-28T03:23:01.714Z,7.9
2023-04-28T03:24:01.995Z,7.8
2023-04-28T03:25:01.512Z,7.9
2023-04-28T03:26:01.099Z,7.9
2023-04-28T03:27:01.715Z,7.8
2023-04-28T03:28:01.312Z,7.8
2023-04-28T03:29:01.885Z,7.8
2023-04-28T03:30:01.505Z,7.8
2023-04-28T03:31:01.109Z,7.8
2023-04-28T03:32:01.678Z,7.8
2023-04-28T03:33:01.309Z,7.8
2023-04-28T03:34:01.901Z,7.9
2023-04-28T03:35:01.487Z,7.9
2023-04-28T03:36:01.098Z,7.9
2023-04-28T03:37:01.645Z,7.9
2023-04-28T03:38:01.236Z,7.9
2023-04-28T03:39:01.822Z,8
2023-04-28T03:40:01.413Z,7.9
2023-04-28T03:41:02.034Z,8
2023-04-28T03:42:01.663Z,8.1
2023-04-28T03:43:02.690Z,8.1
2023-04-28T03:44:01.782Z,8.1
2023-04-28T03:45:01.369Z,8.2
2023-04-28T03:46:01.989Z,8.3
2023-04-28T03:47:01.607Z,8.3
2023-04-28T03:48:01.208Z,8.3
2023-04-28T03:49:01.783Z,8.3
2023-04-28T03:50:01.433Z,8.3
2023-04-28T03:51:01.989Z,8.4
2023-04-28T03:52:01.596Z,8.4
2023-04-28T03:53:01.199Z,8.4
2023-04-28T03:54:01.779Z,8.4
2023-04-28T03:55:01.371Z,8.4
2023-04-28T03:56:01.967Z,8.4
2023-04-28T03:57:01.579Z,8.4
2023-04-28T03:58:01.187Z,8.4
2023-04-28T03:59:01.745Z,8.4
2023-04-28T04:00:01.331Z,8.4
2023-04-28T04:01:01.919Z,8.5
2023-04-28T04:02:01.622Z,8.6
2023-04-28T04:03:01.159Z,8.5
2023-04-28T04:04:01.842Z,8.5
2023-04-28T04:05:01.540Z,8.5
2023-04-28T04:06:01.937Z,8.6
2023-04-28T04:07:01.560Z,8.6
2023-04-28T04:08:01.131Z,8.6
2023-04-28T04:09:01.698Z,8.5
2023-04-28T04:10:03.418Z,8.6
2023-04-28T04:11:01.834Z,8.6
2023-04-28T04:12:01.439Z,8.6
2023-04-28T04:13:01.036Z,8.6
2023-04-28T04:14:01.604Z,8.6
2023-04-28T04:15:01.196Z,8.6
2023-04-28T04:16:01.790Z,8.6
2023-04-28T04:17:01.393Z,8.6
2023-04-28T04:18:02.039Z,8.6
2023-04-28T04:19:01.679Z,8.6
2023-04-28T04:20:01.248Z,8.6
2023-04-28T04:21:01.818Z,8.6
2023-04-28T04:22:01.440Z,8.6
2023-04-28T04:23:02.006Z,8.6
2023-04-28T04:24:01.627Z,8.6
2023-04-28T04:25:01.527Z,8.6
2023-04-28T04:26:01.820Z,8.7
2023-04-28T04:27:01.422Z,8.7
2023-04-28T04:28:01.041Z,8.7
2023-04-28T04:29:01.633Z,8.7
2023-04-28T04:30:01.235Z,8.7
2023-04-28T04:31:01.827Z,8.8
2023-04-28T04:32:01.459Z,8.8
2023-04-28T04:33:01.034Z,8.8
2023-04-28T04:34:01.608Z,8.8
2023-04-28T04:35:01.222Z,8.8
2023-04-28T04:36:01.919Z,8.8
2023-04-28T04:37:01.441Z,8.8
2023-04-28T04:38:01.042Z,8.8
2023-04-28T04:39:01.587Z,8.8
2023-04-28T04:40:01.201Z,8.8
2023-04-28T04:41:01.763Z,8.8
2023-04-28T04:42:07.433Z,8.8
2023-04-28T04:43:01.893Z,8.8
2023-04-28T04:44:01.514Z,8.8
2023-04-28T04:45:01.100Z,8.9
2023-04-28T04:46:01.665Z,9
2023-04-28T04:47:01.272Z,8.9
2023-04-28T04:48:01.936Z,9
2023-04-28T04:49:01.506Z,9
2023-04-28T04:50:01.058Z,9
2023-04-28T04:51:01.664Z,9.1
2023-04-28T04:52:01.256Z,9.1
2023-04-28T04:53:01.833Z,9.1
2023-04-28T04:54:01.460Z,9.1
2023-04-28T04:55:02.006Z,9.1
2023-04-28T04:56:01.623Z,9.1
2023-04-28T04:57:01.470Z,9.2
2023-04-28T04:58:01.789Z,9.2
2023-04-28T04:59:01.378Z,9.2
2023-04-28T05:00:01.947Z,9.1
2023-04-28T05:01:01.572Z,9.2
2023-04-28T05:02:01.231Z,9.1
2023-04-28T05:03:01.839Z,9.2
2023-04-28T05:04:01.504Z,9.2
2023-04-28T05:05:12.728Z,9.2
2023-04-28T05:06:01.504Z,9.3
2023-04-28T05:07:01.138Z,9.2
2023-04-28T05:08:01.714Z,9.1
2023-04-28T05:09:01.301Z,9.2
2023-04-28T05:10:02.325Z,9.2
2023-04-28T05:11:01.547Z,9.2
2023-04-28T05:12:01.130Z,9.2
2023-04-28T05:13:01.725Z,9.2
2023-04-28T05:14:01.328Z,9.3
2023-04-28T05:15:01.911Z,9.3
2023-04-28T05:16:01.573Z,9.3
2023-04-28T05:17:01.124Z,9.3
2023-04-28T05:18:01.683Z,9.3
2023-04-28T05:19:01.316Z,9.2
2023-04-28T05:20:01.890Z,9.3
2023-04-28T05:21:01.529Z,9.2
2023-04-28T05:22:01.067Z,9.3
2023-04-28T05:23:01.625Z,9.3
2023-04-28T05:24:01.216Z,9.3
2023-04-28T05:25:01.808Z,9.4
2023-04-28T05:26:01.453Z,9.3
2023-04-28T05:27:01.992Z,9.3
2023-04-28T05:28:01.641Z,9.4
2023-04-28T05:29:01.206Z,9.3
2023-04-28T05:30:01.807Z,9.3
2023-04-28T05:31:01.405Z,9.3
2023-04-28T05:32:01.999Z,9.3
2023-04-28T05:33:01.677Z,9.4
2023-04-28T05:34:01.195Z,9.4
2023-04-28T05:35:01.793Z,9.4
2023-04-28T05:36:01.375Z,9.4
2023-04-28T05:37:01.956Z,9.4
2023-04-28T05:38:01.562Z,9.5
2023-04-28T05:39:01.175Z,9.5
2023-04-28T05:40:01.780Z,9.6
2023-04-28T05:41:01.392Z,9.6
2023-04-28T05:42:02.016Z,9.6
2023-04-28T05:43:01.615Z,9.6
2023-04-28T05:44:01.222Z,9.6
2023-04-28T05:45:01.785Z,9.7
2023-04-28T05:46:01.477Z,9.7
2023-04-28T05:47:02.039Z,9.6
2023-04-28T05:48:01.721Z,9.7
2023-04-28T05:49:01.189Z,9.7
2023-04-28T05:50:01.813Z,9.8
2023-04-28T05:51:01.442Z,9.7
2023-04-28T05:52:01.998Z,9.7
2023-04-28T05:53:01.586Z,9.8
2023-04-28T05:54:01.172Z,9.7
2023-04-28T05:55:01.757Z,9.8
2023-04-28T05:56:01.373Z,9.7
2023-04-28T05:57:01.958Z,9.8
2023-04-28T05:58:01.599Z,9.9
2023-04-28T05:59:01.145Z,10
2023-04-28T06:00:01.730Z,10
2023-04-28T06:01:01.342Z,10.1
2023-04-28T06:02:01.945Z,10.2
2023-04-28T06:03:01.709Z,10.2
2023-04-28T06:04:01.694Z,10.2
2023-04-28T06:05:01.669Z,10.2
2023-04-28T06:06:01.439Z,10.3
2023-04-28T06:07:01.988Z,10.3
2023-04-28T06:08:01.585Z,10.4
2023-04-28T06:09:01.170Z,10.3
2023-04-28T06:10:01.761Z,10.4
2023-04-28T06:11:01.399Z,10.4
2023-04-28T06:12:01.952Z,10.4
2023-04-28T06:13:01.552Z,10.3
2023-04-28T06:14:01.151Z,10.3
2023-04-28T06:15:01.719Z,10.3
2023-04-28T06:16:01.327Z,10.3
2023-04-28T06:17:01.917Z,10.3
2023-04-28T06:18:01.573Z,10.3
2023-04-28T06:19:01.133Z,10.2
2023-04-28T06:20:01.687Z,10.1
2023-04-28T06:21:01.289Z,10.2
2023-04-28T06:22:01.869Z,10.1
2023-04-28T06:23:01.486Z,10.1
2023-04-28T06:24:01.043Z,10.1
2023-04-28T06:25:01.613Z,10.2
2023-04-28T06:26:01.215Z,10.2
2023-04-28T06:27:01.796Z,10.1
2023-04-28T06:28:01.408Z,10.1
2023-04-28T06:29:01.047Z,10.1
2023-04-28T06:30:01.568Z,10.2
2023-04-28T06:31:01.169Z,10.1
2023-04-28T06:32:01.738Z,10.1
2023-04-28T06:33:01.369Z,10.1
2023-04-28T06:34:01.944Z,10.1
2023-04-28T06:35:01.567Z,10.1
2023-04-28T06:36:01.127Z,10.1
2023-04-28T06:37:01.705Z,10.2
2023-04-28T06:38:01.299Z,10.2
2023-04-28T06:39:01.907Z,10.2
2023-04-28T06:40:01.508Z,10.2
2023-04-28T06:41:01.094Z,10.3
2023-04-28T06:42:01.659Z,10.3
2023-04-28T06:43:01.251Z,10.3
2023-04-28T06:44:01.854Z,10.3
2023-04-28T06:45:01.457Z,10.3
2023-04-28T06:46:01.063Z,10.4
2023-04-28T06:47:01.766Z,10.3
2023-04-28T06:48:01.348Z,10.4
2023-04-28T06:49:01.887Z,10.4
2023-04-28T06:50:01.499Z,10.4
2023-04-28T06:51:01.102Z,10.4
2023-04-28T06:52:01.644Z,10.4
2023-04-28T06:53:01.241Z,10.5
2023-04-28T06:54:01.826Z,10.5
2023-04-28T06:55:01.419Z,10.4
2023-04-28T06:56:02.014Z,10.5
2023-04-28T06:57:01.630Z,10.7
2023-04-28T06:58:01.230Z,10.7
2023-04-28T06:59:01.830Z,10.8
2023-04-28T07:00:01.429Z,10.8
2023-04-28T07:01:02.031Z,10.8
2023-04-28T07:02:01.741Z,10.8
2023-04-28T07:03:01.342Z,10.8
2023-04-28T07:04:01.987Z,10.8
2023-04-28T07:05:01.538Z,10.9
2023-04-28T07:06:01.089Z,11
2023-04-28T07:07:01.673Z,11
2023-04-28T07:08:01.296Z,10.9
2023-04-28T07:09:02.967Z,10.9
2023-04-28T07:10:01.690Z,10.9
2023-04-28T07:11:01.084Z,10.9
2023-04-28T07:12:01.690Z,10.9
2023-04-28T07:13:01.284Z,10.9
2023-04-28T07:14:01.882Z,11
2023-04-28T07:15:01.483Z,11.3
2023-04-28T07:16:01.146Z,11.4
2023-04-28T07:17:01.678Z,11.6
2023-04-28T07:18:01.441Z,11.6
2023-04-28T07:19:01.870Z,11.6
2023-04-28T07:20:01.456Z,11.7
2023-04-28T07:21:01.842Z,11.7
2023-04-28T07:22:01.905Z,11.8
2023-04-28T07:23:01.291Z,11.8
2023-04-28T07:24:01.871Z,12
2023-04-28T07:25:01.465Z,11.9
2023-04-28T07:26:01.047Z,12.1
2023-04-28T07:27:01.649Z,12.3
2023-04-28T07:28:01.235Z,12.3
2023-04-28T07:29:01.868Z,12.3
2023-04-28T07:30:04.607Z,12.2
2023-04-28T07:31:01.036Z,12.3
2023-04-28T07:32:01.648Z,12.3
2023-04-28T07:33:01.323Z,12.3
2023-04-28T07:34:01.868Z,12.3
2023-04-28T07:35:01.479Z,12.4
2023-04-28T07:36:02.032Z,12.5
2023-04-28T07:37:01.654Z,12.5
2023-04-28T07:38:01.269Z,12.5
2023-04-28T07:39:01.850Z,12.6
2023-04-28T07:40:01.463Z,12.6
2023-04-28T07:41:01.050Z,12.7
2023-04-28T07:42:01.623Z,12.8
2023-04-28T07:43:01.227Z,12.9
2023-04-28T07:44:01.811Z,13
2023-04-28T07:45:01.401Z,13.1
2023-04-28T07:46:02.025Z,13.1
2023-04-28T07:47:01.672Z,13.2
2023-04-28T07:48:01.261Z,13
2023-04-28T07:49:01.816Z,12.9
2023-04-28T07:50:01.436Z,13.1
2023-04-28T07:51:02.030Z,13.2
2023-04-28T07:52:01.626Z,13.3
2023-04-28T07:53:01.217Z,13.4
2023-04-28T07:54:01.801Z,13.6
2023-04-28T07:55:01.396Z,13.8
2023-04-28T07:56:01.994Z,13.8
2023-04-28T07:57:01.593Z,14
2023-04-28T07:58:01.208Z,14
2023-04-28T07:59:01.792Z,13.9
2023-04-28T08:00:01.413Z,14.1
2023-04-28T08:01:01.998Z,13.9
2023-04-28T08:02:01.679Z,14.1
2023-04-28T08:03:01.267Z,13.9
2023-04-28T08:04:02.087Z,14
2023-04-28T08:05:01.582Z,14
2023-04-28T08:06:01.231Z,14.1
2023-04-28T08:07:01.634Z,14.2
2023-04-28T08:08:01.235Z,14.3
2023-04-28T08:09:01.808Z,14.3
2023-04-28T08:10:01.399Z,14.4
2023-04-28T08:11:01.992Z,14.6
2023-04-28T08:12:01.602Z,14.8
2023-04-28T08:13:01.193Z,14.9
2023-04-28T08:14:01.779Z,14.9
2023-04-28T08:15:01.369Z,15
2023-04-28T08:16:01.969Z,14.8
2023-04-28T08:17:01.599Z,14.8
2023-04-28T08:18:01.211Z,14.7
2023-04-28T08:19:01.807Z,14.6
2023-04-28T08:20:01.425Z,14.6
2023-04-28T08:21:02.013Z,14.6
2023-04-28T08:22:01.655Z,14.7
2023-04-28T08:23:01.267Z,14.8
2023-04-28T08:24:01.850Z,14.9
2023-04-28T08:25:01.442Z,15.1
2023-04-28T08:26:02.029Z,15.2
2023-04-28T08:27:01.647Z,15.3
2023-04-28T08:28:01.261Z,15.2
2023-04-28T08:29:01.826Z,15.1
2023-04-28T08:30:01.466Z,15.1
2023-04-28T08:31:02.027Z,15.2
2023-04-28T08:32:01.644Z,15.2
2023-04-28T08:33:01.306Z,15.1
2023-04-28T08:34:01.844Z,15.3
2023-04-28T08:35:01.439Z,15.3
2023-04-28T08:36:02.021Z,15.3
2023-04-28T08:37:01.628Z,15.5
2023-04-28T08:38:01.251Z,15.7
2023-04-28T08:39:01.822Z,15.8
2023-04-28T08:40:01.410Z,16.2
2023-04-28T08:41:02.001Z,16.1
2023-04-28T08:42:01.596Z,16.2
2023-04-28T08:43:01.186Z,16.2
2023-04-28T08:44:01.786Z,16.3
2023-04-28T08:45:01.380Z,16.3
2023-04-28T08:46:02.019Z,16.2
2023-04-28T08:47:01.792Z,16.1
2023-04-28T08:48:01.224Z,16.4
2023-04-28T08:49:01.782Z,16.3
2023-04-28T08:50:01.369Z,16.3
2023-04-28T08:51:01.955Z,16.3
2023-04-28T08:52:01.545Z,16.5
2023-04-28T08:53:01.294Z,16.6
2023-04-28T08:55:01.271Z,16
2023-04-28T08:56:01.867Z,15.8
2023-04-28T08:57:01.452Z,15.9
2023-04-28T08:58:01.071Z,15.9
2023-04-28T08:59:01.626Z,16
2023-04-28T09:00:01.242Z,16.2
2023-04-28T09:01:01.801Z,16.6
2023-04-28T09:02:01.431Z,16.8
2023-04-28T09:03:02.118Z,16.9
2023-04-28T09:04:01.977Z,17
2023-04-28T09:05:02.023Z,17
2023-04-28T09:06:01.786Z,17
2023-04-28T09:07:01.399Z,17
2023-04-28T09:08:02.008Z,17.3
2023-04-28T09:09:01.618Z,17.2
2023-04-28T09:10:01.251Z,17.1
2023-04-28T09:11:01.791Z,16.9
2023-04-28T09:12:01.387Z,17.2
2023-04-28T09:13:01.969Z,17.3
2023-04-28T09:14:01.609Z,17.2
2023-04-28T09:15:01.218Z,16.8
2023-04-28T09:16:01.808Z,16.9
2023-04-28T09:17:01.426Z,16.9
2023-04-28T09:18:02.070Z,16.9
2023-04-28T09:19:01.681Z,16.8
2023-04-28T09:20:01.271Z,16.8
2023-04-28T09:21:02.052Z,16.9
2023-04-28T09:22:05.649Z,17.1
2023-04-28T09:23:02.071Z,17.1
2023-04-28T09:24:01.683Z,17.2
2023-04-28T09:25:01.299Z,17.4
2023-04-28T09:26:01.907Z,17.1
2023-04-28T09:27:01.497Z,17.3
2023-04-28T09:28:01.083Z,17.1
2023-04-28T09:29:01.663Z,17
2023-04-28T09:30:01.280Z,17.2
2023-04-28T09:31:01.906Z,17.1
2023-04-28T09:32:01.626Z,17
2023-04-28T09:33:01.116Z,17
2023-04-28T09:34:01.664Z,17.2
2023-04-28T09:35:01.259Z,17.3
2023-04-28T09:36:01.838Z,17.4
2023-04-28T09:37:01.475Z,17.7
2023-04-28T09:38:02.023Z,17.5
2023-04-28T09:39:01.704Z,17.8
2023-04-28T09:40:01.279Z,17.8
2023-04-28T09:41:01.897Z,17.7
2023-04-28T09:42:01.547Z,17.7
2023-04-28T09:43:08.872Z,17.4
2023-04-28T09:44:01.633Z,17.2
2023-04-28T09:45:01.220Z,17.2
2023-04-28T09:46:01.982Z,17.2
2023-04-28T09:47:01.486Z,17.2
2023-04-28T09:48:01.087Z,17
2023-04-28T09:49:01.639Z,17
2023-04-28T09:50:01.248Z,16.8
2023-04-28T09:51:01.810Z,16.8
2023-04-28T09:52:01.422Z,16.7
2023-04-28T09:53:01.991Z,16.5
2023-04-28T09:54:01.579Z,16.1
2023-04-28T09:55:01.167Z,16.3
2023-04-28T09:56:01.764Z,16.1
2023-04-28T09:57:01.373Z,16.3
2023-04-28T09:58:01.995Z,16.4
2023-04-28T09:59:01.580Z,16.5
2023-04-28T10:00:01.174Z,16.5
2023-04-28T10:02:11.166Z,16.7
2023-04-28T10:03:01.960Z,16.5
2023-04-28T10:04:01.800Z,16.5
2023-04-28T10:05:01.439Z,16.4
2023-04-28T10:06:01.837Z,16.6
2023-04-28T10:07:01.444Z,16.5
2023-04-28T10:08:02.052Z,16.6
2023-04-28T10:09:02.004Z,16.9
2023-04-28T10:10:01.288Z,16.8
2023-04-28T10:11:01.861Z,16.7
2023-04-28T10:12:01.456Z,16.7
2023-04-28T10:13:02.068Z,16.8
2023-04-28T10:14:01.693Z,16.8
2023-04-28T10:15:01.302Z,16.8
2023-04-28T10:16:01.922Z,17
2023-04-28T10:17:01.531Z,17.1
2023-04-28T10:18:01.137Z,17.4
2023-04-28T10:19:01.699Z,17.8
2023-04-28T10:20:01.303Z,17.7
2023-04-28T10:21:01.890Z,17.1
2023-04-28T10:22:01.492Z,16.7
2023-04-28T10:23:01.118Z,16.7
2023-04-28T10:24:01.660Z,16.6
2023-04-28T10:25:01.256Z,16.5
2023-04-28T10:26:01.864Z,16.4
2023-04-28T10:27:01.452Z,16.3
2023-04-28T10:28:02.032Z,16.4
2023-04-28T10:29:01.624Z,16.2
2023-04-28T10:30:01.273Z,16.4
2023-04-28T10:31:01.816Z,16.4
2023-04-28T10:32:01.491Z,16.8
2023-04-28T10:33:02.046Z,16.9
2023-04-28T10:34:01.687Z,17
2023-04-28T10:35:01.272Z,17
2023-04-28T10:36:01.873Z,16.9
2023-04-28T10:37:01.461Z,17
2023-04-28T10:38:02.084Z,16.8
2023-04-28T10:39:01.695Z,16.6
2023-04-28T10:40:01.282Z,16.4
2023-04-28T10:41:01.893Z,16.5
2023-04-28T10:42:01.477Z,16.4
2023-04-28T10:43:01.079Z,16.6
2023-04-28T10:44:01.686Z,16.8
2023-04-28T10:45:01.292Z,17.1
2023-04-28T10:46:02.063Z,17.2
2023-04-28T10:47:01.570Z,16.9
2023-04-28T10:48:01.161Z,16.7
2023-04-28T10:49:01.705Z,16.6
2023-04-28T10:50:01.342Z,16.5
2023-04-28T10:51:01.901Z,16.4
2023-04-28T10:52:01.513Z,16.2
2023-04-28T10:53:01.483Z,16.3
2023-04-28T10:54:01.676Z,16.4
2023-04-28T10:55:07.007Z,16.6
2023-04-28T10:56:01.802Z,16.6
2023-04-28T10:57:01.428Z,16.4
2023-04-28T10:58:01.979Z,16.4
2023-04-28T10:59:01.579Z,16.3
2023-04-28T11:00:01.157Z,16.3
2023-04-28T11:01:01.743Z,16
2023-04-28T11:02:01.425Z,15.7
2023-04-28T11:03:02.050Z,15.7
2023-04-28T11:04:01.712Z,15.8
2023-04-28T11:05:01.218Z,15.9
2023-04-28T11:06:01.752Z,15.9
2023-04-28T11:07:01.370Z,15.7
2023-04-28T11:08:01.962Z,15.5
2023-04-28T11:09:01.548Z,15.4
2023-04-28T11:10:01.128Z,15.5
2023-04-28T11:11:01.706Z,15.5
2023-04-28T11:12:01.374Z,15.5
2023-04-28T11:13:01.898Z,15.6
2023-04-28T11:14:01.488Z,15.6
2023-04-28T11:15:01.072Z,15.4
2023-04-28T11:16:01.655Z,15.3
2023-04-28T11:17:01.293Z,15.2
2023-04-28T11:18:01.920Z,15.1
2023-04-28T11:19:01.509Z,15.2
2023-04-28T11:20:01.111Z,15.3
2023-04-28T11:21:01.701Z,15.4
2023-04-28T11:22:01.289Z,15.4
2023-04-28T11:23:01.868Z,15.4
2023-04-28T11:24:01.473Z,15.6
2023-04-28T11:25:02.052Z,15.7
2023-04-28T11:26:01.720Z,15.6
2023-04-28T11:27:01.288Z,15.6
2023-04-28T11:28:01.891Z,15.8
2023-04-28T11:29:01.477Z,16
2023-04-28T11:30:02.177Z,15.8
2023-04-28T11:31:01.835Z,15.4
2023-04-28T11:32:01.379Z,15.4
2023-04-28T11:33:01.921Z,15.7
2023-04-28T11:34:01.563Z,15.8
2023-04-28T11:35:01.124Z,15.6
2023-04-28T11:36:01.700Z,15.2
2023-04-28T11:37:01.286Z,15.2
2023-04-28T11:38:01.888Z,15.3
2023-04-28T11:39:01.480Z,15.1
2023-04-28T11:40:02.067Z,14.7
2023-04-28T11:41:01.670Z,14.5
2023-04-28T11:42:01.252Z,14.6
2023-04-28T11:43:02.068Z,14.6
2023-04-28T11:44:01.510Z,14.8
2023-04-28T11:45:01.082Z,14.8
2023-04-28T11:46:01.772Z,14.7
2023-04-28T11:47:01.835Z,14.8
2023-04-28T11:48:01.643Z,14.8
2023-04-28T11:49:01.271Z,14.9
2023-04-28T11:50:02.051Z,14.8
2023-04-28T11:51:01.517Z,14.8
2023-04-28T11:52:01.084Z,14.9
2023-04-28T11:53:01.676Z,14.9
2023-04-28T11:54:01.274Z,14.9
2023-04-28T11:55:01.907Z,15
2023-04-28T11:56:01.510Z,14.8
2023-04-28T11:57:01.209Z,14.8
2023-04-28T11:58:01.684Z,14.8
2023-04-28T11:59:02.553Z,14.8
2023-04-28T12:00:01.823Z,14.7
2023-04-28T12:01:01.411Z,14.7
2023-04-28T12:02:01.989Z,14.6
2023-04-28T12:03:01.758Z,14.6
2023-04-28T12:04:01.355Z,14.6
2023-04-28T12:05:01.812Z,14.7
2023-04-28T12:06:01.476Z,14.6
2023-04-28T12:07:02.024Z,14.5
2023-04-28T12:08:01.626Z,14.4
2023-04-28T12:09:01.221Z,14.6
2023-04-28T12:10:01.809Z,14.6
2023-04-28T12:11:01.404Z,14.8
2023-04-28T12:12:02.011Z,14.7
2023-04-28T12:13:01.603Z,14.8
2023-04-28T12:14:01.189Z,14.8
2023-04-28T12:15:01.761Z,14.9
2023-04-28T12:16:01.362Z,14.7
2023-04-28T12:17:01.957Z,14.7
2023-04-28T12:18:01.567Z,14.7
2023-04-28T12:19:01.125Z,14.7
2023-04-28T12:20:01.712Z,14.8
2023-04-28T12:21:01.321Z,14.9
2023-04-28T12:22:01.965Z,15
2023-04-28T12:23:01.553Z,14.9
2023-04-28T12:24:01.143Z,15.1
2023-04-28T12:25:01.728Z,15.2
2023-04-28T12:26:01.318Z,15.1
2023-04-28T12:27:01.923Z,15.3
2023-04-28T12:28:01.513Z,15.2
2023-04-28T12:29:01.100Z,15.3
2023-04-28T12:30:01.684Z,15.5
2023-04-28T12:31:01.291Z,15.5
2023-04-28T12:32:01.874Z,15.5
2023-04-28T12:33:01.575Z,15.2
2023-04-28T12:34:02.059Z,15.3
2023-04-28T12:35:01.656Z,15.4
2023-04-28T12:36:01.250Z,15.2
2023-04-28T12:37:01.839Z,14.8
2023-04-28T12:38:01.480Z,14.9
2023-04-28T12:39:02.011Z,15.1
2023-04-28T12:40:01.611Z,15.3
2023-04-28T12:41:01.203Z,15.4
2023-04-28T12:42:01.786Z,15.2
2023-04-28T12:43:01.401Z,15
2023-04-28T12:44:01.952Z,15.1
2023-04-28T12:45:01.544Z,15.3
2023-04-28T12:46:01.163Z,15.1
2023-04-28T12:47:01.720Z,15.1
2023-04-28T12:48:01.375Z,15.3
2023-04-28T12:49:01.894Z,15.4
2023-04-28T12:50:01.483Z,15.5
2023-04-28T12:51:02.067Z,15.5
2023-04-28T12:52:01.654Z,15.4
2023-04-28T12:53:01.778Z,15
2023-04-28T12:54:01.398Z,15.1
2023-04-28T12:55:02.013Z,15.1
2023-04-28T12:56:01.608Z,15.1
2023-04-28T12:57:01.679Z,15
2023-04-28T12:58:01.299Z,15
2023-04-28T12:59:01.868Z,15
2023-04-28T13:00:01.476Z,14.9
2023-04-28T13:01:02.055Z,14.9
2023-04-28T13:02:01.702Z,15
2023-04-28T13:03:01.357Z,15.2
2023-04-28T13:04:01.908Z,15.4
2023-04-28T13:05:01.667Z,15.8
2023-04-28T13:06:01.108Z,16
2023-04-28T13:07:01.721Z,16.1
2023-04-28T13:08:01.311Z,16
2023-04-28T13:09:01.894Z,15.9
2023-04-28T13:10:01.526Z,16
2023-04-28T13:11:04.924Z,16.1
2023-04-28T13:12:01.638Z,16
2023-04-28T13:13:01.234Z,16.1
2023-04-28T13:14:01.838Z,16.3
2023-04-28T13:15:01.438Z,16.4
2023-04-28T13:16:02.067Z,16.3
2023-04-28T13:17:01.725Z,16.2
2023-04-28T13:18:01.271Z,16.3
2023-04-28T13:19:01.853Z,16.6
2023-04-28T13:20:01.470Z,16.8
2023-04-28T13:21:02.030Z,17.3
2023-04-28T13:22:01.617Z,17.3
2023-04-28T13:23:01.212Z,17.2
2023-04-28T13:24:01.801Z,17.3
2023-04-28T13:25:01.416Z,17.3
2023-04-28T13:26:02.015Z,17.3
2023-04-28T13:27:01.606Z,17.3
2023-04-28T13:28:01.212Z,17.4
2023-04-28T13:29:01.780Z,17.8
2023-04-28T13:30:01.370Z,17.7
2023-04-28T13:31:01.953Z,17.6
2023-04-28T13:32:01.575Z,17.6
2023-04-28T13:33:01.215Z,17.7
2023-04-28T13:34:01.745Z,17.7
2023-04-28T13:35:01.342Z,17.5
2023-04-28T13:36:01.917Z,17.6